Time;durP1;ratioP1;P1;durP2;ratioP2;P2;SDS_P1;SDS_P2;PMS_P1;PMS_P2;Temp;Humidity;BMP_temperature;BMP_pressure;BME280_temperature;BME280_humidity;BME280_pressure;Samples;Min_cycle;Max_cycle;Signal;HPM_P1;HPM_P2
2024/04/02 00:01:10;;;;;;;18.38;8.35;;;;;;;12.90;66.69;98024.25;5071176;28;20082;-64
2024/04/02 00:03:36;;;;;;;17.83;8.48;;;;;;;12.90;66.62;98018.91;5072224;28;20050;-65
2024/04/02 00:06:02;;;;;;;16.40;8.57;;;;;;;12.89;66.53;98012.03;5054210;28;20045;-66
2024/04/02 00:08:31;;;;;;;21.08;8.52;;;;;;;12.89;66.94;98014.69;5053953;28;20049;-66
2024/04/02 00:11:04;;;;;;;22.05;8.95;;;;;;;12.84;67.10;97998.78;5071046;28;20032;-66
2024/04/02 00:13:30;;;;;;;23.38;9.80;;;;;;;12.85;67.19;98013.69;5054101;28;20135;-66
2024/04/02 00:15:56;;;;;;;21.20;8.00;;;;;;;12.87;67.37;98000.88;5072166;28;20045;-65
2024/04/02 00:18:22;;;;;;;22.33;7.28;;;;;;;12.88;67.39;98007.78;5071907;28;20086;-66
2024/04/02 00:20:48;;;;;;;24.40;7.85;;;;;;;12.90;67.41;98005.63;5037489;28;20256;-66
2024/04/02 00:23:13;;;;;;;18.33;8.65;;;;;;;12.93;67.40;98012.25;5071727;28;20052;-65
2024/04/02 00:25:39;;;;;;;21.85;8.77;;;;;;;12.95;67.04;97999.47;5070593;28;20040;-65
2024/04/02 00:28:05;;;;;;;18.63;8.15;;;;;;;13.01;67.12;98010.81;5071666;28;20056;-65
2024/04/02 00:30:32;;;;;;;18.13;8.07;;;;;;;13.03;67.43;98003.31;5071817;28;20032;-66
2024/04/02 00:32:58;;;;;;;16.70;8.60;;;;;;;13.03;67.02;97996.16;5071904;28;20102;-66
2024/04/02 00:35:23;;;;;;;16.55;7.85;;;;;;;13.06;67.11;98011.56;5071871;28;20473;-65
2024/04/02 00:37:51;;;;;;;20.55;8.30;;;;;;;13.04;67.02;98004.94;5071641;28;20408;-64
2024/04/02 00:40:17;;;;;;;18.27;8.10;;;;;;;13.01;67.33;98003.63;5070222;28;20082;-65
2024/04/02 00:42:45;;;;;;;17.42;7.93;;;;;;;12.88;67.71;97994.50;5071812;28;20053;-64
2024/04/02 00:45:11;;;;;;;24.35;8.43;;;;;;;12.85;68.03;97996.91;5071660;28;20085;-65
2024/04/02 00:47:37;;;;;;;17.27;8.68;;;;;;;12.78;68.20;97996.50;5070089;28;20067;-65
2024/04/02 00:50:04;;;;;;;22.88;9.27;;;;;;;12.70;68.87;98003.22;5071424;28;20044;-65
2024/04/02 00:52:30;;;;;;;16.98;8.70;;;;;;;12.64;68.74;98002.47;5070501;28;20044;-65
2024/04/02 00:54:57;;;;;;;15.77;7.53;;;;;;;12.58;69.36;97992.22;5071561;28;20044;-66
2024/04/02 00:57:23;;;;;;;19.33;8.73;;;;;;;12.55;69.37;97996.22;5103614;28;20044;-65
2024/04/02 00:59:49;;;;;;;15.27;8.10;;;;;;;12.51;69.49;97992.56;5071210;28;20047;-66
2024/04/02 01:02:15;;;;;;;17.80;8.10;;;;;;;12.47;69.84;97989.69;5069888;28;20047;-66
2024/04/02 01:04:42;;;;;;;18.30;8.20;;;;;;;12.42;70.05;97992.38;5069836;28;20497;-64
2024/04/02 01:07:07;;;;;;;17.60;7.63;;;;;;;12.37;70.47;97992.44;5070072;28;20048;-66
2024/04/02 01:09:34;;;;;;;16.58;7.63;;;;;;;12.36;70.63;97998.84;5071221;28;20048;-64
2024/04/02 01:12:00;;;;;;;14.10;8.30;;;;;;;12.32;71.43;97997.00;5071157;28;20040;-67
2024/04/02 01:14:25;;;;;;;17.67;8.18;;;;;;;12.31;71.33;97993.56;5069974;28;20118;-66
2024/04/02 01:16:51;;;;;;;20.88;9.10;;;;;;;12.17;71.41;97976.72;5069965;28;20440;-63
2024/04/02 01:19:17;;;;;;;22.20;9.05;;;;;;;12.26;71.88;98001.59;5069948;28;20048;-65
2024/04/02 01:21:43;;;;;;;21.20;8.82;;;;;;;12.26;72.00;98001.59;5071551;28;20044;-64
2024/04/02 01:24:08;;;;;;;21.02;8.60;;;;;;;12.21;71.93;98004.31;5071104;28;20050;-64
2024/04/02 01:26:34;;;;;;;17.45;8.48;;;;;;;12.14;72.11;97999.31;5070060;28;20041;-66
2024/04/02 01:29:02;;;;;;;22.35;8.57;;;;;;;12.08;72.35;98000.44;5070995;28;20122;-66
2024/04/02 01:31:28;;;;;;;18.77;8.25;;;;;;;12.05;72.63;98001.78;5069956;28;20048;-65
2024/04/02 01:33:54;;;;;;;18.38;8.70;;;;;;;12.00;72.85;98001.88;5069703;28;20056;-65
2024/04/02 01:36:20;;;;;;;17.45;9.02;;;;;;;11.97;72.61;98005.06;5069926;28;20063;-67
2024/04/02 01:38:45;;;;;;;23.98;8.57;;;;;;;11.91;73.17;98000.88;5053033;28;20138;-65
2024/04/02 01:41:11;;;;;;;23.48;8.38;;;;;;;11.90;73.36;98009.13;5068373;28;20040;-65
2024/04/02 01:43:37;;;;;;;18.02;8.52;;;;;;;11.87;73.40;98005.16;5071124;28;20526;-66
2024/04/02 01:46:03;;;;;;;17.48;8.10;;;;;;;11.84;74.17;98003.03;5057346;28;20047;-65
2024/04/02 01:48:29;;;;;;;18.58;7.95;;;;;;;11.76;73.87;97999.09;5110049;28;20194;-65
2024/04/02 01:50:55;;;;;;;16.20;8.07;;;;;;;11.78;74.35;97994.31;5111669;28;20517;-66
2024/04/02 01:53:21;;;;;;;19.23;8.45;;;;;;;11.72;74.37;97999.94;5093219;28;20047;-66
2024/04/02 01:55:46;;;;;;;26.70;8.52;;;;;;;11.74;74.35;98011.09;5111349;28;20047;-65
2024/04/02 01:58:12;;;;;;;19.58;8.40;;;;;;;11.71;74.36;98009.00;5101172;28;20085;-64
2024/04/02 02:00:38;;;;;;;23.73;8.60;;;;;;;11.70;74.61;98008.19;5109756;28;20048;-65
2024/04/02 02:03:04;;;;;;;20.35;8.93;;;;;;;11.68;75.38;98009.56;5110330;28;20052;-66
2024/04/02 02:05:30;;;;;;;16.83;8.32;;;;;;;11.61;74.98;98009.84;5110050;28;20042;-64
2024/04/02 02:07:56;;;;;;;23.80;8.90;;;;;;;11.62;75.39;98005.31;5110027;28;20051;-65
2024/04/02 02:10:22;;;;;;;24.35;9.63;;;;;;;11.61;75.41;98012.50;5110980;28;20047;-65
2024/04/02 02:12:48;;;;;;;22.55;8.85;;;;;;;11.58;75.33;98016.50;5111457;28;20101;-65
2024/04/02 02:15:14;;;;;;;23.08;9.18;;;;;;;11.58;75.85;98016.50;5111267;28;20035;-65
2024/04/02 02:17:39;;;;;;;17.30;8.68;;;;;;;11.57;75.56;98022.88;5111155;28;20066;-65
2024/04/02 02:20:05;;;;;;;19.35;9.27;;;;;;;11.57;76.21;98024.75;5110940;28;20488;-64
2024/04/02 02:22:33;;;;;;;14.80;8.13;;;;;;;11.55;76.02;98026.88;5093237;28;20162;-66
2024/04/02 02:24:59;;;;;;;22.33;8.93;;;;;;;11.55;76.00;98029.53;5114738;28;20055;-66
2024/04/02 02:27:25;;;;;;;26.20;8.82;;;;;;;11.55;76.47;98022.38;5096538;28;20047;-66
2024/04/02 02:29:51;;;;;;;23.40;8.20;;;;;;;11.53;76.41;98021.03;5096365;28;20415;-64
2024/04/02 02:32:16;;;;;;;19.17;8.52;;;;;;;11.49;76.50;98028.78;5114644;28;20035;-66
2024/04/02 02:34:42;;;;;;;17.38;8.32;;;;;;;11.49;76.69;98026.13;5114477;28;20039;-65
2024/04/02 02:37:08;;;;;;;19.92;8.70;;;;;;;11.47;76.69;98019.50;5114582;28;20469;-66
2024/04/02 02:39:33;;;;;;;17.10;8.55;;;;;;;11.47;76.80;98024.81;5113859;28;20412;-66
2024/04/02 02:41:59;;;;;;;19.67;9.27;;;;;;;11.44;76.74;98015.56;5096156;28;20045;-65
2024/04/02 02:44:25;;;;;;;27.38;9.60;;;;;;;11.41;77.08;98012.66;5114400;28;20055;-66
2024/04/02 02:46:50;;;;;;;20.05;8.63;;;;;;;11.39;77.19;98015.59;5083816;28;20052;-64
2024/04/02 02:49:16;;;;;;;21.60;9.60;;;;;;;11.39;77.02;98010.28;5073644;28;20048;-67
2024/04/02 02:51:42;;;;;;;24.38;9.15;;;;;;;11.41;77.20;98015.31;5074099;28;20051;-65
2024/04/02 02:54:07;;;;;;;26.58;9.93;;;;;;;11.39;76.96;98023.56;5055588;28;20075;-66
2024/04/02 02:56:33;;;;;;;18.83;9.02;;;;;;;11.37;77.21;98017.72;5073885;28;20127;-64
2024/04/02 02:58:59;;;;;;;23.65;9.77;;;;;;;11.35;77.58;98028.63;5072531;28;20148;-66
2024/04/02 03:01:24;;;;;;;21.63;9.07;;;;;;;11.35;77.42;98023.31;5073882;28;20048;-64
2024/04/02 03:03:53;;;;;;;22.23;9.63;;;;;;;11.35;77.62;98022.50;5055294;28;20049;-64
2024/04/02 03:06:19;;;;;;;23.45;9.85;;;;;;;11.34;77.63;98018.28;5073639;28;20127;-65
2024/04/02 03:08:45;;;;;;;25.10;9.57;;;;;;;11.32;77.54;98023.06;5105721;28;20131;-65
2024/04/02 03:11:12;;;;;;;23.48;11.60;;;;;;;11.33;77.55;98028.09;5073577;28;20035;-64
2024/04/02 03:13:37;;;;;;;27.35;10.13;;;;;;;11.34;77.10;98032.31;5073204;28;20040;-64
2024/04/02 03:16:03;;;;;;;26.80;10.30;;;;;;;11.16;77.65;98005.66;5073356;28;20041;-63
2024/04/02 03:18:30;;;;;;;25.35;10.32;;;;;;;11.35;78.06;98038.41;5072851;28;20138;-65
2024/04/02 03:20:56;;;;;;;19.88;9.20;;;;;;;11.39;77.43;98036.81;5055151;28;20139;-65
2024/04/02 03:23:24;;;;;;;29.67;10.13;;;;;;;11.40;76.85;98041.03;5071955;28;20044;-64
2024/04/02 03:26:00;;;;;;;19.92;10.57;;;;;;;11.40;77.19;98034.94;5073444;28;20123;-64
2024/04/02 03:28:27;;;;;;;22.92;9.80;;;;;;;11.43;77.38;98032.53;5071662;28;20045;-65
2024/04/02 03:31:02;;;;;;;22.83;9.95;;;;;;;11.44;77.17;98035.97;5071556;28;20498;-64
2024/04/02 03:33:29;;;;;;;25.25;10.98;;;;;;;11.43;77.46;98029.88;5072149;28;20059;-65
2024/04/02 03:36:04;;;;;;;27.30;11.20;;;;;;;11.43;77.37;98031.75;5072064;28;20521;-65
2024/04/02 03:38:29;;;;;;;30.08;10.20;;;;;;;11.44;77.94;98034.13;5071016;28;20048;-65
2024/04/02 03:40:55;;;;;;;24.67;10.00;;;;;;;11.50;77.52;98032.22;5072853;28;20632;-65
2024/04/02 03:43:21;;;;;;;25.30;10.20;;;;;;;11.56;77.35;98023.97;5071356;28;20040;-65
2024/04/02 03:45:46;;;;;;;19.05;9.18;;;;;;;11.65;76.74;98016.22;5072752;28;20410;-64
2024/04/02 03:48:12;;;;;;;27.77;9.63;;;;;;;11.77;76.40;98021.16;5070928;28;20048;-64
2024/04/02 03:50:38;;;;;;;27.92;10.18;;;;;;;11.89;76.19;98018.16;5072337;28;20484;-65
2024/04/02 03:53:05;;;;;;;29.33;10.23;;;;;;;12.00;75.69;98024.94;5071058;28;20047;-66
2024/04/02 03:55:37;;;;;;;27.92;11.18;;;;;;;12.08;75.14;98019.03;5072174;28;20044;-64
2024/04/02 03:58:03;;;;;;;21.95;9.13;;;;;;;12.19;74.74;98015.22;5070557;28;20049;-66
2024/04/02 04:00:30;;;;;;;25.27;10.15;;;;;;;12.25;74.24;98026.56;5071975;28;20068;-64
2024/04/02 04:02:56;;;;;;;17.65;10.23;;;;;;;12.30;73.72;98028.41;5071262;28;20048;-63
2024/04/02 04:05:22;;;;;;;27.95;10.25;;;;;;;12.37;73.78;98019.00;5053441;28;20139;-65
2024/04/02 04:07:48;;;;;;;26.50;10.32;;;;;;;12.51;73.13;98027.09;5053030;28;20041;-63
2024/04/02 04:10:14;;;;;;;21.90;10.18;;;;;;;12.64;73.14;98020.31;5070683;28;20062;-65
2024/04/02 04:12:40;;;;;;;36.45;11.27;;;;;;;12.82;72.26;98029.41;5070635;28;20569;-64
2024/04/02 04:15:05;;;;;;;25.48;10.50;;;;;;;13.01;71.70;98029.44;5068526;28;20131;-66
2024/04/02 04:17:31;;;;;;;26.48;10.10;;;;;;;13.11;70.98;98032.75;5070158;28;20346;-67
2024/04/02 04:19:57;;;;;;;27.17;9.95;;;;;;;13.26;70.05;98039.75;5069809;28;20055;-65
2024/04/02 04:22:22;;;;;;;22.42;10.48;;;;;;;13.38;69.71;98028.69;5068798;28;20056;-68
2024/04/02 04:25:02;;;;;;;23.67;10.20;;;;;;;13.51;69.41;98032.50;5069917;28;20032;-66
2024/04/02 04:27:32;;;;;;;27.52;9.98;;;;;;;13.67;68.75;98033.81;5054589;28;20047;-67
2024/04/02 04:29:59;;;;;;;21.95;9.38;;;;;;;13.81;68.33;98029.34;5053748;28;20128;-65
2024/04/02 04:32:25;;;;;;;25.10;9.75;;;;;;;13.88;68.23;98031.63;5071491;28;20082;-65
2024/04/02 04:34:51;;;;;;;24.98;10.05;;;;;;;13.98;67.81;98028.03;5070347;28;20117;-65
2024/04/02 04:37:17;;;;;;;31.15;9.88;;;;;;;14.07;66.95;98032.38;5071680;28;20044;-67
2024/04/02 04:39:43;;;;;;;22.60;10.75;;;;;;;14.08;67.61;98025.16;5071623;28;20047;-65
2024/04/02 04:42:08;;;;;;;26.58;11.27;;;;;;;14.16;67.03;98029.81;5070539;28;20052;-67
2024/04/02 04:44:34;;;;;;;24.70;10.43;;;;;;;14.23;66.81;98026.78;5071771;28;20548;-65
2024/04/02 04:47:00;;;;;;;23.13;9.52;;;;;;;14.25;66.87;98025.41;5069369;28;20059;-67
2024/04/02 04:49:25;;;;;;;22.33;9.82;;;;;;;14.31;66.84;98032.22;5069999;28;20052;-64
2024/04/02 04:51:51;;;;;;;23.58;9.52;;;;;;;14.35;66.58;98027.06;5071195;28;20112;-65
2024/04/02 04:54:17;;;;;;;29.08;9.82;;;;;;;14.29;66.76;98034.41;5071048;28;20048;-64
2024/04/02 04:56:42;;;;;;;22.73;9.90;;;;;;;14.37;66.49;98029.47;5069266;28;20444;-64
2024/04/02 04:59:08;;;;;;;26.25;9.63;;;;;;;14.48;66.49;98034.31;5069414;28;20044;-65
2024/04/02 05:01:33;;;;;;;23.15;10.10;;;;;;;14.54;65.54;98030.50;5070018;28;20532;-66
2024/04/02 05:03:59;;;;;;;24.92;10.75;;;;;;;14.65;65.73;98025.75;5069895;28;20103;-64
2024/04/02 05:06:25;;;;;;;22.52;9.32;;;;;;;14.72;65.18;98023.47;5071165;28;20052;-65
2024/04/02 05:08:51;;;;;;;24.48;9.93;;;;;;;14.86;64.91;98036.81;5070089;28;20048;-70
2024/04/02 05:11:16;;;;;;;23.73;9.57;;;;;;;14.89;64.63;98038.09;5070138;28;20039;-67
2024/04/02 05:13:42;;;;;;;26.23;9.88;;;;;;;14.91;64.70;98042.03;5070082;28;20060;-65
2024/04/02 05:16:08;;;;;;;27.00;10.05;;;;;;;15.01;64.45;98040.25;5067138;28;20385;-66
2024/04/02 05:18:33;;;;;;;28.20;10.52;;;;;;;15.00;64.48;98036.78;5070069;28;20098;-65
2024/04/02 05:20:59;;;;;;;26.70;9.75;;;;;;;15.02;64.47;98029.25;5070438;28;20040;-68
2024/04/02 05:23:26;;;;;;;24.42;11.13;;;;;;;15.04;63.98;98035.09;5069232;28;20040;-66
2024/04/02 05:25:59;;;;;;;27.63;10.02;;;;;;;14.98;64.52;98034.41;5070950;28;20045;-66
2024/04/02 05:28:24;;;;;;;28.70;9.52;;;;;;;14.99;64.61;98032.53;5053159;28;20114;-65
2024/04/02 05:30:50;;;;;;;26.27;10.60;;;;;;;14.97;64.28;98037.38;5069653;28;20541;-65
2024/04/02 05:33:16;;;;;;;26.77;11.10;;;;;;;14.99;64.10;98038.66;5070965;28;20090;-63
2024/04/02 05:35:41;;;;;;;23.10;10.27;;;;;;;15.00;64.45;98039.47;5070722;28;20040;-63
2024/04/02 05:38:07;;;;;;;23.33;9.95;;;;;;;15.04;63.94;98031.66;5070988;28;20101;-67
2024/04/02 05:40:32;;;;;;;25.00;10.73;;;;;;;15.04;63.85;98036.97;5070911;28;20037;-67
2024/04/02 05:42:58;;;;;;;24.38;9.98;;;;;;;15.07;64.13;98037.16;5052773;28;20094;-66
2024/04/02 05:45:24;;;;;;;27.75;10.35;;;;;;;15.10;64.07;98027.78;5068512;28;20070;-67
2024/04/02 05:47:49;;;;;;;26.77;10.13;;;;;;;15.27;63.48;98022.59;5102270;28;20477;-66
2024/04/02 05:50:17;;;;;;;25.88;10.40;;;;;;;15.35;63.35;98029.91;5090331;28;20497;-67
2024/04/02 05:52:43;;;;;;;31.63;10.60;;;;;;;15.42;63.24;98026.81;5108726;28;20031;-65
2024/04/02 05:55:09;;;;;;;29.80;11.15;;;;;;;15.49;62.81;98024.50;5090060;28;20105;-66
2024/04/02 05:57:35;;;;;;;25.33;10.40;;;;;;;15.49;62.96;98016.47;5110195;28;20118;-68
2024/04/02 06:00:01;;;;;;;26.23;10.48;;;;;;;15.52;63.05;98025.78;5095724;28;20564;-66
2024/04/02 06:02:26;;;;;;;23.83;10.00;;;;;;;15.67;62.72;98012.84;5096371;28;20131;-65
2024/04/02 06:04:52;;;;;;;34.38;11.05;;;;;;;15.78;61.66;98015.31;5096243;28;20039;-65
2024/04/02 06:07:18;;;;;;;32.15;9.90;;;;;;;15.98;61.62;98016.69;5114790;28;20035;-66
2024/04/02 06:09:44;;;;;;;28.98;10.95;;;;;;;16.21;61.07;98012.88;5114443;28;20039;-66
2024/04/02 06:12:09;;;;;;;27.60;10.75;;;;;;;16.31;60.79;98001.13;5096482;28;20047;-69
2024/04/02 06:14:35;;;;;;;23.63;10.90;;;;;;;16.52;59.70;98006.69;5093144;28;20051;-67
2024/04/02 06:17:02;;;;;;;31.98;10.60;;;;;;;16.67;59.46;98008.16;5114742;28;20067;-68
2024/04/02 06:19:28;;;;;;;29.63;10.60;;;;;;;16.77;58.92;98000.66;5114264;28;20039;-66
2024/04/02 06:21:54;;;;;;;23.73;10.50;;;;;;;16.94;58.44;97999.09;5095033;28;20038;-64
2024/04/02 06:24:20;;;;;;;30.20;10.50;;;;;;;17.09;58.00;98003.22;5113929;28;20492;-62
2024/04/02 06:26:45;;;;;;;31.88;10.63;;;;;;;17.07;58.20;97997.41;5095308;28;20126;-62
2024/04/02 06:29:11;;;;;;;19.75;9.52;;;;;;;17.06;58.37;98006.53;5094062;28;20059;-62
2024/04/02 06:31:37;;;;;;;29.17;10.93;;;;;;;17.09;58.03;98004.03;5086199;28;20044;-61
2024/04/02 06:34:03;;;;;;;32.65;11.23;;;;;;;16.95;58.37;98006.06;5111524;28;20042;-63
2024/04/02 06:36:30;;;;;;;24.65;11.55;;;;;;;16.82;58.83;98004.28;5077736;28;20631;-61
2024/04/02 06:38:56;;;;;;;26.63;10.73;;;;;;;16.75;58.80;98008.19;5112659;27;20416;-62
2024/04/02 06:41:22;;;;;;;25.90;11.40;;;;;;;16.76;59.20;98011.66;5089841;28;20038;-61
2024/04/02 06:43:47;;;;;;;27.23;11.55;;;;;;;16.77;59.53;98003.34;5113763;28;20457;-63
2024/04/02 06:46:13;;;;;;;27.40;10.82;;;;;;;16.77;59.51;97995.31;5113511;28;20459;-64
2024/04/02 06:48:39;;;;;;;31.13;11.38;;;;;;;16.88;58.64;98011.06;5113723;28;20054;-63
2024/04/02 06:51:06;;;;;;;32.88;11.15;;;;;;;16.97;58.46;98012.69;5113769;28;20070;-63
2024/04/02 06:53:32;;;;;;;26.77;10.70;;;;;;;16.99;58.48;98015.81;5078487;28;20058;-66
2024/04/02 06:55:58;;;;;;;27.55;10.98;;;;;;;17.12;58.13;98010.63;5095300;28;20031;-65
2024/04/02 06:58:24;;;;;;;28.25;11.10;;;;;;;17.16;58.10;98000.88;5113682;28;20057;-62
2024/04/02 07:00:51;;;;;;;25.92;11.02;;;;;;;17.16;58.13;97985.59;5129222;27;20040;-65
2024/04/02 07:03:21;;;;;;;34.85;11.43;;;;;;;17.32;57.51;97982.44;5077941;28;20043;-66
2024/04/02 07:05:47;;;;;;;;;;;;;;;17.31;57.74;97975.53;5113855;28;20035;-64
2024/04/02 07:08:13;;;;;;;31.75;10.90;;;;;;;17.42;57.76;97976.78;5112894;28;19923;-66
2024/04/02 07:10:44;;;;;;;28.35;10.98;;;;;;;17.58;57.15;97975.16;5077780;28;20035;-68
2024/04/02 07:13:11;;;;;;;27.63;11.02;;;;;;;17.57;57.01;97965.56;5078127;28;20118;-66
2024/04/02 07:15:37;;;;;;;28.63;11.52;;;;;;;17.67;56.72;97970.59;5094654;28;20523;-64
2024/04/02 07:18:04;;;;;;;29.48;10.77;;;;;;;17.84;56.28;97969.00;5094870;28;20524;-65
2024/04/02 07:20:30;;;;;;;26.58;11.75;;;;;;;17.96;56.38;97958.41;5112870;28;20190;-66
2024/04/02 07:22:55;;;;;;;38.35;11.13;;;;;;;18.13;55.52;97969.06;5094413;28;20108;-65
2024/04/02 07:25:21;;;;;;;33.15;11.35;;;;;;;18.16;55.40;97962.28;5111700;28;20045;-65
2024/04/02 07:27:47;;;;;;;33.13;11.52;;;;;;;18.20;55.42;97963.22;5111908;28;20043;-65
2024/04/02 07:30:13;;;;;;;30.65;11.05;;;;;;;18.32;55.09;97957.97;5111913;28;20036;-66
2024/04/02 07:32:39;;;;;;;32.75;11.70;;;;;;;18.31;54.95;97952.91;5112621;28;20039;-67
2024/04/02 07:35:05;;;;;;;35.30;11.15;;;;;;;18.35;54.91;97957.31;5112262;28;20132;-62
2024/04/02 07:37:31;;;;;;;34.58;11.68;;;;;;;18.33;54.70;97945.34;5112265;28;20039;-63
2024/04/02 07:39:57;;;;;;;39.83;11.80;;;;;;;18.37;54.43;97946.25;5111989;28;20046;-63
2024/04/02 07:42:22;;;;;;;37.50;11.30;;;;;;;18.47;54.09;97947.78;5077147;28;20525;-64
2024/04/02 07:44:48;;;;;;;40.63;11.68;;;;;;;18.53;53.99;97949.16;5076980;28;20031;-63
2024/04/02 07:47:14;;;;;;;35.80;12.32;;;;;;;18.51;53.97;97949.50;5080672;28;20056;-62
2024/04/02 07:49:39;;;;;;;36.90;11.60;;;;;;;18.50;53.77;97947.13;5053544;28;20409;-64
2024/04/02 07:52:05;;;;;;;36.42;12.07;;;;;;;18.54;53.79;97943.47;5071982;28;20049;-63
2024/04/02 07:54:31;;;;;;;31.05;11.27;;;;;;;18.57;53.35;97948.19;5071858;28;20086;-64
2024/04/02 07:56:56;;;;;;;41.65;11.70;;;;;;;18.59;53.46;97950.56;5069826;28;20101;-64
2024/04/02 07:59:23;;;;;;;38.88;13.52;;;;;;;18.67;53.41;97948.94;5071610;28;20044;-63
2024/04/02 08:01:48;;;;;;;35.60;12.18;;;;;;;18.77;53.27;97945.91;5070369;28;20090;-65
2024/04/02 08:04:14;;;;;;;37.92;10.80;;;;;;;18.75;53.58;97945.44;5070371;28;20559;-64
2024/04/02 08:06:42;;;;;;;31.38;11.05;;;;;;;18.67;53.70;97944.34;5069948;28;20048;-66
2024/04/02 08:09:08;;;;;;;36.85;11.45;;;;;;;18.75;53.25;97930.13;5071303;28;20063;-63
2024/04/02 08:11:34;;;;;;;39.53;12.15;;;;;;;18.79;53.16;97935.59;5069995;28;20059;-65
2024/04/02 08:14:00;;;;;;;33.17;11.90;;;;;;;18.82;53.02;97926.91;5070016;28;20497;-65
2024/04/02 08:16:26;;;;;;;33.78;11.60;;;;;;;18.85;52.41;97931.63;5069909;28;20104;-67
2024/04/02 08:18:51;;;;;;;28.58;10.82;;;;;;;18.88;52.52;97932.88;5053258;28;20036;-65
2024/04/02 08:21:17;;;;;;;37.83;11.40;;;;;;;18.95;52.42;97927.78;5067117;28;20042;-65
2024/04/02 08:23:43;;;;;;;42.90;11.68;;;;;;;19.08;51.85;97925.94;5070755;28;20121;-65
2024/04/02 08:26:09;;;;;;;37.50;10.73;;;;;;;19.11;52.08;97925.28;5068779;28;20171;-65
2024/04/02 08:28:34;;;;;;;43.53;13.48;;;;;;;19.16;51.79;97923.16;5070297;28;20044;-63
2024/04/02 08:31:00;;;;;;;39.63;10.80;;;;;;;19.33;51.07;97922.25;5071093;28;20040;-60
2024/04/02 08:33:26;;;;;;;43.30;10.93;;;;;;;19.40;50.64;97927.06;5071152;28;20044;-63
2024/04/02 08:35:52;;;;;;;35.83;10.45;;;;;;;19.41;50.67;97928.63;5070923;28;20592;-64
2024/04/02 08:38:18;;;;;;;39.38;11.60;;;;;;;19.43;50.60;97926.41;5066838;28;20497;-65
2024/04/02 08:40:53;;;;;;;38.30;11.25;;;;;;;19.43;50.77;97932.56;5069913;28;20040;-62
2024/04/02 08:43:20;;;;;;;38.85;11.10;;;;;;;19.45;50.80;97922.28;5086946;28;20066;-61
2024/04/02 08:45:46;;;;;;;44.58;12.05;;;;;;;19.53;51.11;97920.63;5069600;28;20037;-63
2024/04/02 08:48:12;;;;;;;60.63;34.33;;;;;;;19.54;50.68;97932.16;5087525;28;20060;-63
2024/04/02 08:50:38;;;;;;;40.55;11.35;;;;;;;19.55;50.50;97928.34;5089717;28;20040;-62
2024/04/02 08:53:05;;;;;;;34.80;10.75;;;;;;;19.47;50.52;97919.25;5066233;28;20588;-65
2024/04/02 08:55:32;;;;;;;32.40;10.95;;;;;;;19.50;50.71;97911.31;5059296;28;20040;-62
2024/04/02 08:57:58;;;;;;;38.28;10.50;;;;;;;19.59;50.47;97915.78;5036130;28;20132;-62
2024/04/02 09:00:24;;;;;;;37.65;11.38;;;;;;;19.52;50.46;97909.06;5066674;28;20124;-63
2024/04/02 09:02:52;;;;;;;31.48;10.00;;;;;;;19.33;50.54;97890.00;5065392;28;20102;-64
2024/04/02 09:05:18;;;;;;;42.13;12.48;;;;;;;19.49;50.39;97906.25;5079559;28;20064;-65
2024/04/02 09:07:43;;;;;;;39.85;11.85;;;;;;;19.54;50.61;97899.91;5083334;28;20094;-66
2024/04/02 09:10:09;;;;;;;39.25;11.40;;;;;;;19.61;50.71;97903.59;5068959;28;20537;-66
2024/04/02 09:12:35;;;;;;;44.10;11.07;;;;;;;19.68;50.09;97903.09;5074035;28;20039;-66
2024/04/02 09:15:01;;;;;;;36.67;11.10;;;;;;;19.74;49.89;97904.47;5089046;28;20040;-62
2024/04/02 09:17:26;;;;;;;40.35;11.15;;;;;;;19.80;49.71;97892.38;5071551;28;20159;-66
2024/04/02 09:19:52;;;;;;;38.10;11.10;;;;;;;19.89;49.19;97893.03;5089154;28;20428;-65
2024/04/02 09:22:18;;;;;;;38.60;10.85;;;;;;;19.94;48.97;97894.72;5053588;28;20078;-65
2024/04/02 09:24:43;;;;;;;39.45;11.20;;;;;;;19.93;48.45;97891.25;5073196;28;20040;-63
2024/04/02 09:27:10;;;;;;;36.05;10.00;;;;;;;19.89;48.24;97887.66;5086183;28;20501;-66
2024/04/02 09:29:36;;;;;;;36.58;9.90;;;;;;;19.82;48.36;97884.72;5084864;28;20135;-65
2024/04/02 09:32:07;;;;;;;38.42;10.90;;;;;;;19.81;48.28;97880.47;5070789;28;20135;-67
2024/04/02 09:34:34;;;;;;;43.08;10.05;;;;;;;19.85;48.27;97867.94;5074072;28;20068;-67
2024/04/02 09:37:12;;;;;;;47.13;10.88;;;;;;;19.93;47.89;97866.25;5073147;28;20044;-65
2024/04/02 09:39:40;;;;;;;35.03;9.02;;;;;;;20.01;47.68;97857.31;5070602;28;20032;-66
2024/04/02 09:42:05;;;;;;;36.10;9.90;;;;;;;20.05;47.19;97858.19;5052108;28;20164;-65
2024/04/02 09:44:32;;;;;;;32.72;9.23;;;;;;;20.06;46.70;97862.47;5070080;28;20482;-65
2024/04/02 09:46:59;;;;;;;28.90;9.20;;;;;;;20.05;46.36;97854.72;5067830;28;20152;-65
2024/04/02 09:49:24;;;;;;;45.90;9.30;;;;;;;20.09;46.44;97855.59;5072018;28;20055;-65
2024/04/02 09:51:53;;;;;;;38.33;9.68;;;;;;;20.11;46.26;97858.75;5097728;28;20048;-65
2024/04/02 09:54:20;;;;;;;46.65;10.25;;;;;;;20.18;46.92;97859.00;5072430;28;20044;-65
2024/04/02 09:56:46;;;;;;;35.30;9.75;;;;;;;20.25;46.49;97853.81;5072158;28;20043;-64
2024/04/02 09:59:12;;;;;;;35.60;8.98;;;;;;;20.29;46.96;97854.69;5072156;28;20033;-64
2024/04/02 10:01:39;;;;;;;44.28;8.95;;;;;;;20.30;46.41;97844.75;5073819;28;20041;-67
2024/04/02 10:04:07;;;;;;;44.63;10.30;;;;;;;20.34;45.93;97835.63;5072624;28;20052;-65
2024/04/02 10:06:34;;;;;;;41.00;9.82;;;;;;;20.34;45.72;97826.78;5074099;28;20060;-65
2024/04/02 10:09:06;;;;;;;45.08;9.13;;;;;;;20.37;45.88;97826.09;5073671;28;20048;-64
2024/04/02 10:11:43;;;;;;;39.00;8.93;;;;;;;20.40;46.02;97823.50;5072197;28;20481;-64
2024/04/02 10:14:10;;;;;;;41.03;9.60;;;;;;;20.40;45.70;97830.81;5058606;28;20076;-66
2024/04/02 10:16:40;;;;;;;43.53;9.35;;;;;;;20.48;45.63;97829.91;5073731;28;20540;-66
2024/04/02 10:19:28;;;;;;;42.38;9.77;;;;;;;20.55;45.23;97829.34;5051921;28;20532;-65
2024/04/02 10:21:55;;;;;;;39.53;9.52;;;;;;;20.61;45.86;97834.13;5076182;28;20493;-66
2024/04/02 10:24:25;;;;;;;39.03;9.13;;;;;;;20.64;45.50;97822.69;5073289;28;20032;-62
2024/04/02 10:26:54;;;;;;;40.88;9.63;;;;;;;20.66;46.01;97816.19;5072708;28;20037;-65
2024/04/02 10:29:31;;;;;;;40.28;10.95;;;;;;;20.70;45.87;97815.16;5072246;28;20521;-68
2024/04/02 10:31:58;;;;;;;48.40;10.45;;;;;;;20.72;45.72;97809.44;5105496;28;20047;-67
2024/04/02 10:34:24;;;;;;;39.72;9.55;;;;;;;20.75;45.75;97806.06;5105917;28;20055;-69
2024/04/02 10:36:50;;;;;;;44.75;9.57;;;;;;;20.80;45.73;97809.28;5089180;28;20136;-67
2024/04/02 10:39:16;;;;;;;43.03;9.30;;;;;;;20.85;45.76;97806.38;5073760;28;20133;-67
2024/04/02 10:41:44;;;;;;;46.35;9.88;;;;;;;20.91;45.81;97809.56;5088156;28;20459;-68
2024/04/02 10:44:10;;;;;;;38.65;9.07;;;;;;;20.97;45.40;97800.13;5065556;28;20045;-69
2024/04/02 10:46:37;;;;;;;44.38;9.50;;;;;;;21.06;45.02;97803.44;5067326;28;20060;-66
2024/04/02 10:49:03;;;;;;;45.00;10.02;;;;;;;21.17;45.29;97800.25;5065033;28;20135;-65
2024/04/02 10:51:30;;;;;;;39.78;9.88;;;;;;;21.22;44.78;97800.78;5057293;28;20183;-68
2024/04/02 10:53:58;;;;;;;35.70;9.95;;;;;;;21.28;44.73;97799.38;5060524;28;20040;-67
2024/04/02 10:56:26;;;;;;;34.45;9.50;;;;;;;21.31;45.28;97796.00;5080062;28;20115;-67
2024/04/02 10:58:53;;;;;;;47.08;10.13;;;;;;;21.39;44.51;97796.22;5078367;28;20072;-68
2024/04/02 11:01:19;;;;;;;41.42;9.50;;;;;;;21.52;44.02;97803.84;5082619;28;20044;-67
2024/04/02 11:03:45;;;;;;;32.15;8.77;;;;;;;21.58;43.83;97798.22;5064218;28;20036;-69
2024/04/02 11:06:11;;;;;;;42.83;10.88;;;;;;;21.65;43.85;97787.59;5083421;28;20077;-70
2024/04/02 11:08:40;;;;;;;39.72;9.30;;;;;;;21.71;43.93;97791.59;5079569;28;20134;-68
2024/04/02 11:11:07;;;;;;;35.95;9.88;;;;;;;21.71;43.75;97797.00;5083851;28;20040;-69
2024/04/02 11:13:33;;;;;;;43.47;9.07;;;;;;;21.72;43.93;97787.75;5061195;28;20097;-70
2024/04/02 11:15:59;;;;;;;34.05;9.70;;;;;;;21.80;43.77;97784.09;5075932;28;20052;-71
2024/04/02 11:18:26;;;;;;;45.33;9.68;;;;;;;21.83;43.53;97778.00;5073173;28;20040;-63